createdAt,value
2024-04-25T00:01:21.814Z,100.00
2024-04-25T00:03:50.198Z,100.00
2024-04-25T00:06:17.614Z,100.00
2024-04-25T00:08:44.566Z,100.00
2024-04-25T00:11:11.902Z,100.00
2024-04-25T00:13:38.794Z,100.00
2024-04-25T00:16:06.093Z,100.00
2024-04-25T00:18:32.966Z,100.00
2024-04-25T00:21:00.844Z,100.00
2024-04-25T00:23:27.848Z,100.00
2024-04-25T00:25:55.028Z,100.00
2024-04-25T00:28:21.876Z,100.00
2024-04-25T00:30:50.991Z,100.00
2024-04-25T00:33:18.262Z,100.00
2024-04-25T00:35:45.523Z,100.00
2024-04-25T00:38:13.588Z,100.00
2024-04-25T00:40:40.773Z,100.00
2024-04-25T00:43:07.646Z,100.00
2024-04-25T00:45:34.849Z,100.00
2024-04-25T00:48:04.083Z,100.00
2024-04-25T00:50:31.904Z,100.00
2024-04-25T00:53:00.570Z,100.00
2024-04-25T00:55:28.602Z,100.00
2024-04-25T00:57:57.026Z,100.00
2024-04-25T01:00:25.301Z,100.00
2024-04-25T01:02:55.312Z,100.00
2024-04-25T01:05:22.471Z,100.00
2024-04-25T01:07:49.494Z,100.00
2024-04-25T01:10:16.787Z,100.00
2024-04-25T01:12:43.654Z,100.00
2024-04-25T01:15:10.996Z,100.00
2024-04-25T01:17:37.876Z,100.00
2024-04-25T01:20:08.247Z,100.00
2024-04-25T01:22:37.510Z,100.00
2024-04-25T01:25:07.233Z,100.00
2024-04-25T01:27:35.066Z,100.00
2024-04-25T01:30:02.455Z,100.00
2024-04-25T01:32:30.339Z,100.00
2024-04-25T01:34:57.846Z,100.00
2024-04-25T01:37:24.693Z,100.00
2024-04-25T01:39:51.825Z,100.00
2024-04-25T01:42:18.922Z,100.00
2024-04-25T01:44:46.156Z,100.00
2024-04-25T01:47:13.143Z,100.00
2024-04-25T01:49:40.562Z,100.00
2024-04-25T01:52:07.579Z,100.00
2024-04-25T01:54:34.826Z,100.00
2024-04-25T01:57:01.776Z,100.00
2024-04-25T01:59:28.999Z,100.00
2024-04-25T02:01:56.461Z,100.00
2024-04-25T02:04:23.837Z,100.00
2024-04-25T02:06:50.630Z,100.00
2024-04-25T02:09:17.867Z,100.00
2024-04-25T02:11:44.722Z,100.00
2024-04-25T02:14:11.991Z,100.00
2024-04-25T02:16:38.769Z,100.00
2024-04-25T02:19:05.965Z,100.00
2024-04-25T02:21:51.164Z,100.00
2024-04-25T02:24:53.836Z,100.00
2024-04-25T02:27:20.625Z,100.00
2024-04-25T02:29:47.804Z,100.00
2024-04-25T02:32:15.063Z,100.00
2024-04-25T02:34:42.277Z,100.00
2024-04-25T02:37:09.062Z,100.00
2024-04-25T02:39:36.221Z,100.00
2024-04-25T02:42:03.147Z,100.00
2024-04-25T02:44:30.341Z,100.00
2024-04-25T02:46:57.151Z,100.00
2024-04-25T02:49:24.820Z,100.00
2024-04-25T02:51:51.635Z,100.00
2024-04-25T02:54:18.812Z,100.00
2024-04-25T02:56:45.607Z,100.00
2024-04-25T02:59:12.903Z,100.00
2024-04-25T03:01:39.885Z,100.00
2024-04-25T03:04:09.454Z,100.00
2024-04-25T03:06:37.734Z,100.00
2024-04-25T03:09:05.076Z,100.00
2024-04-25T03:11:32.008Z,100.00
2024-04-25T03:14:00.458Z,100.00
2024-04-25T03:16:27.275Z,100.00
2024-04-25T03:18:54.511Z,100.00
2024-04-25T03:21:21.371Z,100.00
2024-04-25T03:23:48.612Z,100.00
2024-04-25T03:26:15.457Z,100.00
2024-04-25T03:28:42.706Z,100.00
2024-04-25T03:31:09.507Z,100.00
2024-04-25T03:33:36.773Z,100.00
2024-04-25T03:36:03.744Z,100.00
2024-04-25T03:38:30.993Z,100.00
2024-04-25T03:40:57.856Z,100.00
2024-04-25T03:43:25.035Z,100.00
2024-04-25T03:45:51.890Z,100.00
2024-04-25T03:48:19.133Z,100.00
2024-04-25T03:50:46.069Z,100.00
2024-04-25T03:53:14.546Z,100.00
2024-04-25T03:55:42.731Z,100.00
2024-04-25T03:58:10.024Z,100.00
2024-04-25T04:00:36.969Z,100.00
2024-04-25T04:03:04.394Z,100.00
2024-04-25T04:05:31.381Z,100.00
2024-04-25T04:07:59.016Z,100.00
2024-04-25T04:10:25.828Z,100.00
2024-04-25T04:12:53.138Z,100.00
2024-04-25T04:15:21.183Z,100.00
2024-04-25T04:17:48.664Z,100.00
2024-04-25T04:20:15.675Z,100.00
2024-04-25T04:22:42.959Z,100.00
2024-04-25T04:25:12.839Z,100.00
2024-04-25T04:27:40.068Z,100.00
2024-04-25T04:30:08.670Z,100.00
2024-04-25T04:32:36.094Z,100.00
2024-04-25T04:35:03.193Z,100.00
2024-04-25T04:37:30.340Z,100.00
2024-04-25T04:39:57.183Z,100.00
2024-04-25T04:42:24.334Z,100.00
2024-04-25T04:44:51.223Z,100.00
2024-04-25T04:47:18.988Z,100.00
2024-04-25T04:49:45.866Z,100.00
2024-04-25T04:52:13.085Z,100.00
2024-04-25T04:54:39.891Z,100.00
2024-04-25T04:57:07.064Z,100.00
2024-04-25T04:59:33.909Z,100.00
2024-04-25T05:02:01.168Z,100.00
2024-04-25T05:04:28.072Z,100.00
2024-04-25T05:06:56.143Z,100.00
2024-04-25T05:09:23.170Z,100.00
2024-04-25T05:11:50.469Z,100.00
2024-04-25T05:14:17.474Z,100.00
2024-04-25T05:16:45.257Z,100.00
2024-04-25T05:19:12.045Z,100.00
2024-04-25T05:21:39.258Z,100.00
2024-04-25T05:24:06.384Z,100.00
2024-04-25T05:26:33.642Z,100.00
2024-04-25T05:29:00.562Z,100.00
2024-04-25T05:31:27.779Z,100.00
2024-04-25T05:33:54.758Z,100.00
2024-04-25T05:36:21.943Z,100.00
2024-04-25T05:38:49.878Z,100.00
2024-04-25T05:41:17.187Z,100.00
2024-04-25T05:43:44.002Z,100.00
2024-04-25T05:46:11.286Z,100.00
2024-04-25T05:48:39.135Z,100.00
2024-04-25T05:51:06.450Z,100.00
2024-04-25T05:53:33.369Z,100.00
2024-04-25T05:56:00.673Z,100.00
2024-04-25T05:58:27.522Z,95.92
2024-04-25T06:00:54.724Z,88.73
2024-04-25T06:03:21.595Z,86.04
2024-04-25T06:05:49.071Z,84.25
2024-04-25T06:08:16.032Z,81.12
2024-04-25T06:10:44.007Z,79.92
2024-04-25T06:13:11.117Z,80.75
2024-04-25T06:15:38.479Z,72.40
2024-04-25T06:18:05.732Z,63.66
2024-04-25T06:20:33.177Z,61.20
2024-04-25T06:23:00.078Z,58.67
2024-04-25T06:25:27.407Z,58.96
2024-04-25T06:27:55.358Z,63.06
2024-04-25T06:30:22.548Z,66.04
2024-04-25T06:32:49.521Z,67.65
2024-04-25T06:35:16.911Z,71.20
2024-04-25T06:37:43.825Z,73.14
2024-04-25T06:40:11.351Z,75.86
2024-04-25T06:42:38.156Z,79.80
2024-04-25T06:45:05.957Z,80.32
2024-04-25T06:47:32.976Z,80.68
2024-04-25T06:50:00.472Z,80.59
2024-04-25T06:52:27.342Z,79.74
2024-04-25T06:54:54.496Z,81.18
2024-04-25T06:57:21.384Z,84.92
2024-04-25T06:59:51.628Z,86.80
2024-04-25T07:02:20.760Z,87.91
2024-04-25T07:04:48.143Z,91.42
2024-04-25T07:07:15.057Z,92.03
2024-04-25T07:09:42.253Z,92.03
2024-04-25T07:12:09.566Z,93.84
2024-04-25T07:14:36.787Z,93.07
2024-04-25T07:17:04.122Z,91.94
2024-04-25T07:19:31.522Z,90.26
2024-04-25T07:21:59.269Z,90.69
2024-04-25T07:24:29.324Z,89.57
2024-04-25T07:26:59.380Z,91.73
2024-04-25T07:29:27.157Z,89.34
2024-04-25T07:31:54.725Z,91.06
2024-04-25T07:34:21.874Z,89.20
2024-04-25T07:36:48.896Z,92.01
2024-04-25T07:39:20.438Z,92.64
2024-04-25T07:41:48.826Z,93.23
2024-04-25T07:44:16.180Z,92.11
2024-04-25T07:46:43.356Z,90.18
2024-04-25T07:49:13.684Z,89.82
2024-04-25T07:51:40.522Z,89.19
2024-04-25T07:54:07.788Z,88.31
2024-04-25T07:56:34.672Z,89.57
2024-04-25T07:59:01.876Z,90.67
2024-04-25T08:01:29.032Z,92.25
2024-04-25T08:03:56.269Z,91.01
2024-04-25T08:06:23.165Z,92.42
2024-04-25T08:08:50.478Z,93.48
2024-04-25T08:11:17.653Z,93.46
2024-04-25T08:13:46.919Z,93.58
2024-04-25T08:16:13.925Z,93.58
2024-04-25T08:18:41.199Z,93.21
2024-04-25T08:21:07.972Z,94.35
2024-04-25T08:23:35.315Z,94.55
2024-04-25T08:26:03.092Z,94.17
2024-04-25T08:28:30.350Z,93.85
2024-04-25T08:30:57.215Z,93.26
2024-04-25T08:33:24.542Z,94.33
2024-04-25T08:35:51.485Z,93.73
2024-04-25T08:38:18.684Z,92.31
2024-04-25T08:40:49.685Z,90.72
2024-04-25T08:43:17.255Z,87.12
2024-04-25T08:45:44.103Z,82.61
2024-04-25T08:48:14.485Z,76.73
2024-04-25T08:50:41.605Z,73.41
2024-04-25T08:53:09.037Z,72.03
2024-04-25T08:55:36.642Z,71.82
2024-04-25T08:58:06.377Z,71.67
2024-04-25T09:00:33.327Z,72.06
2024-04-25T09:03:01.814Z,74.36
2024-04-25T09:05:32.440Z,75.88
2024-04-25T09:07:59.659Z,76.85
2024-04-25T09:10:26.569Z,75.00
2024-04-25T09:12:53.769Z,74.76
2024-04-25T09:15:20.598Z,73.99
2024-04-25T09:17:56.920Z,73.03
2024-04-25T09:20:23.808Z,73.31
2024-04-25T09:22:52.325Z,72.38
2024-04-25T09:25:19.211Z,70.15
2024-04-25T09:27:46.442Z,67.83
2024-04-25T09:30:13.634Z,65.41
2024-04-25T09:32:43.107Z,64.57
2024-04-25T09:35:12.300Z,63.12
2024-04-25T09:37:40.554Z,62.05
2024-04-25T09:40:08.894Z,62.82
2024-04-25T09:42:36.766Z,61.76
2024-04-25T09:45:11.728Z,65.17
2024-04-25T09:47:44.484Z,66.13
2024-04-25T09:50:18.536Z,70.27
2024-04-25T09:52:54.259Z,70.93
2024-04-25T09:55:25.136Z,69.49
2024-04-25T09:57:54.951Z,68.12
2024-04-25T10:00:22.890Z,67.73
2024-04-25T10:02:50.951Z,67.08
2024-04-25T10:05:18.334Z,65.61
2024-04-25T10:07:46.030Z,64.27
2024-04-25T10:10:13.164Z,65.54
2024-04-25T10:12:40.761Z,66.46
2024-04-25T10:15:08.250Z,68.89
2024-04-25T10:17:36.379Z,70.08
2024-04-25T10:20:05.828Z,72.60
2024-04-25T10:22:36.107Z,75.43
2024-04-25T10:25:06.188Z,77.69
2024-04-25T10:27:35.673Z,78.98
2024-04-25T10:30:07.865Z,78.05
2024-04-25T10:32:35.932Z,76.97
2024-04-25T10:35:03.513Z,76.15
2024-04-25T10:37:36.611Z,74.22
2024-04-25T10:40:04.006Z,73.33
2024-04-25T10:42:31.824Z,70.26
2024-04-25T10:44:58.756Z,65.16
2024-04-25T10:47:26.503Z,63.24
2024-04-25T10:49:55.196Z,62.17
2024-04-25T10:52:22.641Z,60.73
2024-04-25T10:54:49.614Z,58.84
2024-04-25T10:57:17.634Z,60.52
2024-04-25T10:59:46.008Z,60.42
2024-04-25T11:02:13.652Z,57.00
2024-04-25T11:04:42.406Z,54.61
2024-04-25T11:07:13.464Z,52.42
2024-04-25T11:09:40.657Z,48.98
2024-04-25T11:12:10.877Z,48.99
2024-04-25T11:14:39.860Z,48.37
2024-04-25T11:17:07.225Z,48.21
2024-04-25T11:19:43.029Z,48.33
2024-04-25T11:22:26.116Z,50.63
2024-04-25T11:25:19.897Z,53.04
2024-04-25T11:27:49.023Z,55.87
2024-04-25T11:30:15.957Z,58.70
2024-04-25T11:32:46.974Z,59.30
2024-04-25T11:35:18.694Z,60.07
2024-04-25T11:37:46.193Z,58.76
2024-04-25T11:40:13.273Z,57.21
2024-04-25T11:42:40.490Z,55.66
2024-04-25T11:45:07.631Z,55.07
2024-04-25T11:47:35.727Z,55.41
2024-04-25T11:50:02.745Z,55.88
2024-04-25T11:52:29.999Z,56.85
2024-04-25T11:54:56.835Z,57.38
2024-04-25T11:57:24.038Z,60.70
2024-04-25T11:59:50.961Z,62.60
2024-04-25T12:02:18.395Z,62.95
2024-04-25T12:04:45.340Z,60.82
2024-04-25T12:07:13.383Z,59.87
2024-04-25T12:09:40.248Z,57.57
2024-04-25T12:12:07.709Z,54.46
2024-04-25T12:14:34.786Z,53.80
2024-04-25T12:17:03.374Z,52.84
2024-04-25T12:19:31.670Z,51.89
2024-04-25T12:21:59.751Z,52.20
2024-04-25T12:24:26.641Z,53.73
2024-04-25T12:26:53.894Z,52.70
2024-04-25T12:29:21.136Z,50.40
2024-04-25T12:31:50.829Z,51.60
2024-04-25T12:34:19.501Z,53.12
2024-04-25T12:36:46.887Z,53.75
2024-04-25T12:39:13.956Z,54.03
2024-04-25T12:41:41.254Z,54.21
2024-04-25T12:44:08.360Z,54.51
2024-04-25T12:46:35.675Z,55.41
2024-04-25T12:49:02.764Z,55.75
2024-04-25T12:51:30.020Z,55.44
2024-04-25T12:53:56.941Z,53.16
2024-04-25T12:56:24.293Z,50.95
2024-04-25T12:58:51.155Z,50.57
2024-04-25T13:01:18.873Z,50.77
2024-04-25T13:03:49.958Z,51.35
2024-04-25T13:06:17.325Z,50.94
2024-04-25T13:08:44.749Z,52.05
2024-04-25T13:11:13.198Z,52.87
2024-04-25T13:13:40.077Z,54.45
2024-04-25T13:16:07.355Z,52.12
2024-04-25T13:18:34.350Z,51.76
2024-04-25T13:21:03.614Z,50.05
2024-04-25T13:23:31.046Z,49.38
2024-04-25T13:25:58.363Z,49.61
2024-04-25T13:28:25.174Z,48.93
2024-04-25T13:30:52.407Z,50.04
2024-04-25T13:33:20.687Z,50.55
2024-04-25T13:35:48.096Z,50.08
2024-04-25T13:38:15.110Z,51.21
2024-04-25T13:40:42.482Z,52.09
2024-04-25T13:43:12.834Z,52.65
2024-04-25T13:45:40.057Z,52.94
2024-04-25T13:48:07.520Z,53.18
2024-04-25T13:50:34.850Z,53.48
2024-04-25T13:53:01.755Z,52.89
2024-04-25T13:55:29.051Z,53.89
2024-04-25T13:57:56.003Z,53.58
2024-04-25T14:00:23.259Z,55.00
2024-04-25T14:02:51.106Z,54.96
2024-04-25T14:05:19.552Z,54.91
2024-04-25T14:07:47.530Z,55.15
2024-04-25T14:10:14.795Z,53.37
2024-04-25T14:12:42.709Z,52.72
2024-04-25T14:15:11.247Z,53.99
2024-04-25T14:17:41.683Z,53.90
2024-04-25T14:20:09.056Z,55.47
2024-04-25T14:22:35.940Z,54.56
2024-04-25T14:25:23.235Z,54.90
2024-04-25T14:28:09.440Z,55.97
2024-04-25T14:30:36.967Z,56.52
2024-04-25T14:33:04.492Z,57.00
2024-04-25T14:35:33.719Z,56.60
2024-04-25T14:38:01.001Z,57.72
2024-04-25T14:40:29.584Z,57.94
2024-04-25T14:42:56.660Z,58.76
2024-04-25T14:45:23.956Z,59.66
2024-04-25T14:47:51.202Z,59.67
2024-04-25T14:50:18.678Z,60.60
2024-04-25T14:52:45.554Z,61.97
2024-04-25T14:55:15.374Z,62.90
2024-04-25T14:57:44.703Z,63.22
2024-04-25T15:00:13.459Z,64.41
2024-04-25T15:02:40.657Z,65.41
2024-04-25T15:05:08.808Z,63.76
2024-04-25T15:07:35.820Z,63.12
2024-04-25T15:10:03.350Z,63.51
2024-04-25T15:12:34.064Z,62.42
2024-04-25T15:15:08.856Z,61.54
2024-04-25T15:17:42.612Z,57.99
2024-04-25T15:20:11.587Z,56.93
2024-04-25T15:22:38.542Z,56.81
2024-04-25T15:25:06.452Z,57.24
2024-04-25T15:27:34.163Z,56.06
2024-04-25T15:30:01.586Z,54.75
2024-04-25T15:32:28.769Z,55.99
2024-04-25T15:34:56.034Z,55.36
2024-04-25T15:37:23.345Z,54.77
2024-04-25T15:39:52.586Z,54.98
2024-04-25T15:42:19.458Z,55.44
2024-04-25T15:44:46.884Z,56.15
2024-04-25T15:47:13.786Z,57.26
2024-04-25T15:49:41.039Z,57.72
2024-04-25T15:52:07.994Z,58.77
2024-04-25T15:54:35.982Z,59.77
2024-04-25T15:57:02.805Z,60.93
2024-04-25T15:59:31.269Z,62.67
2024-04-25T16:01:58.166Z,63.94
2024-04-25T16:04:26.681Z,64.53
2024-04-25T16:06:53.574Z,66.53
2024-04-25T16:09:20.884Z,67.51
2024-04-25T16:11:47.891Z,68.93
2024-04-25T16:14:15.347Z,69.45
2024-04-25T16:16:42.275Z,73.46
2024-04-25T16:19:11.600Z,74.10
2024-04-25T16:21:41.159Z,75.22
2024-04-25T16:24:08.538Z,74.73
2024-04-25T16:26:35.616Z,74.30
2024-04-25T16:29:02.873Z,75.38
2024-04-25T16:31:29.736Z,75.62
2024-04-25T16:33:58.021Z,73.08
2024-04-25T16:36:29.201Z,69.93
2024-04-25T16:38:57.039Z,68.93
2024-04-25T16:41:24.395Z,68.92
2024-04-25T16:43:51.737Z,68.59
2024-04-25T16:46:18.621Z,69.49
2024-04-25T16:48:49.542Z,70.00
2024-04-25T16:51:20.329Z,69.40
2024-04-25T16:53:47.980Z,69.28
2024-04-25T16:56:14.938Z,69.14
2024-04-25T16:58:42.122Z,67.74
2024-04-25T17:01:09.018Z,67.10
2024-04-25T17:03:36.291Z,66.35
2024-04-25T17:06:03.301Z,67.16
2024-04-25T17:08:30.633Z,67.71
2024-04-25T17:10:58.230Z,67.82
2024-04-25T17:13:25.574Z,68.28
2024-04-25T17:15:52.443Z,68.15
2024-04-25T17:18:23.433Z,67.66
2024-04-25T17:20:50.572Z,66.33
2024-04-25T17:23:21.746Z,66.98
2024-04-25T17:25:48.802Z,66.84
2024-04-25T17:28:16.102Z,67.08
2024-04-25T17:30:42.968Z,67.62
2024-04-25T17:33:10.304Z,68.06
2024-04-25T17:35:37.198Z,68.31
2024-04-25T17:38:04.607Z,68.75
2024-04-25T17:40:31.501Z,67.98
2024-04-25T17:42:58.730Z,67.70
2024-04-25T17:45:25.569Z,66.75
2024-04-25T17:47:53.034Z,67.36
2024-04-25T17:50:20.290Z,66.61
2024-04-25T17:52:47.575Z,65.22
2024-04-25T17:55:14.396Z,65.82
2024-04-25T17:57:44.149Z,67.26
2024-04-25T18:00:12.198Z,69.01
2024-04-25T18:02:40.298Z,70.76
2024-04-25T18:05:07.674Z,72.62
2024-04-25T18:07:36.742Z,74.31
2024-04-25T18:10:04.648Z,76.28
2024-04-25T18:12:31.920Z,77.49
2024-04-25T18:14:58.843Z,79.60
2024-04-25T18:17:26.669Z,79.94
2024-04-25T18:19:54.266Z,81.23
2024-04-25T18:22:25.171Z,81.36
2024-04-25T18:24:53.026Z,82.61
2024-04-25T18:27:20.709Z,83.99
2024-04-25T18:29:48.344Z,84.68
2024-04-25T18:32:15.890Z,84.53
2024-04-25T18:34:45.814Z,85.09
2024-04-25T18:37:13.225Z,85.83
2024-04-25T18:39:40.084Z,86.80
2024-04-25T18:42:09.755Z,87.95
2024-04-25T18:44:37.327Z,89.21
2024-04-25T18:47:05.398Z,89.84
2024-04-25T18:49:32.524Z,89.93
2024-04-25T18:52:00.395Z,91.11
2024-04-25T18:54:27.862Z,91.68
2024-04-25T18:56:55.617Z,93.53
2024-04-25T18:59:22.855Z,95.09
2024-04-25T19:01:50.194Z,96.77
2024-04-25T19:04:21.925Z,98.64
2024-04-25T19:06:50.629Z,98.00
2024-04-25T19:09:18.399Z,98.82
2024-04-25T19:11:47.038Z,99.55
2024-04-25T19:14:14.463Z,99.34
2024-04-25T19:16:42.180Z,99.23
2024-04-25T19:19:12.883Z,100.00
2024-04-25T19:21:46.132Z,99.90
2024-04-25T19:24:14.533Z,99.78
2024-04-25T19:26:42.644Z,99.84
2024-04-25T19:29:09.760Z,99.64
2024-04-25T19:31:44.144Z,98.99
2024-04-25T19:34:17.095Z,98.89
2024-04-25T19:36:45.450Z,98.82
2024-04-25T19:39:12.534Z,99.36
2024-04-25T19:41:43.771Z,99.64
2024-04-25T19:44:10.680Z,100.00
2024-04-25T19:46:37.921Z,100.00
2024-04-25T19:49:04.803Z,100.00
2024-04-25T19:51:32.447Z,100.00
2024-04-25T19:53:59.861Z,100.00
2024-04-25T19:56:27.593Z,100.00
2024-04-25T19:58:54.471Z,100.00
2024-04-25T20:01:21.805Z,100.00
2024-04-25T20:03:48.734Z,100.00
2024-04-25T20:06:17.914Z,100.00
2024-04-25T20:08:44.833Z,100.00
2024-04-25T20:11:12.467Z,100.00
2024-04-25T20:13:42.717Z,100.00
2024-04-25T20:16:20.025Z,100.00
2024-04-25T20:19:05.500Z,100.00
2024-04-25T20:21:33.979Z,100.00
2024-04-25T20:24:04.966Z,100.00
2024-04-25T20:26:32.896Z,100.00
2024-04-25T20:29:00.232Z,100.00
2024-04-25T20:31:28.066Z,100.00
2024-04-25T20:33:55.305Z,100.00
2024-04-25T20:36:23.083Z,100.00
2024-04-25T20:38:51.448Z,100.00
2024-04-25T20:41:20.579Z,100.00
2024-04-25T20:43:47.904Z,100.00
2024-04-25T20:46:23.175Z,100.00
2024-04-25T20:48:52.051Z,100.00
2024-04-25T20:51:20.217Z,100.00
2024-04-25T20:53:47.276Z,100.00
2024-04-25T20:56:14.638Z,100.00
2024-04-25T20:58:45.811Z,100.00
2024-04-25T21:01:13.228Z,100.00
2024-04-25T21:03:40.232Z,100.00
2024-04-25T21:06:07.762Z,100.00
2024-04-25T21:08:34.829Z,100.00
2024-04-25T21:11:02.164Z,100.00
2024-04-25T21:13:31.381Z,100.00
2024-04-25T21:15:58.918Z,100.00
2024-04-25T21:18:26.344Z,100.00
2024-04-25T21:20:54.695Z,100.00
2024-04-25T21:23:21.941Z,100.00
2024-04-25T21:25:54.664Z,100.00
2024-04-25T21:28:27.282Z,100.00
2024-04-25T21:30:54.561Z,100.00
2024-04-25T21:33:21.717Z,100.00
2024-04-25T21:35:49.179Z,100.00
2024-04-25T21:38:16.047Z,100.00
2024-04-25T21:40:43.300Z,100.00
2024-04-25T21:43:10.092Z,100.00
2024-04-25T21:45:38.912Z,100.00
2024-04-25T21:48:06.170Z,100.00
2024-04-25T21:50:34.001Z,100.00
2024-04-25T21:53:00.902Z,100.00
2024-04-25T21:55:28.077Z,100.00
2024-04-25T21:57:54.972Z,100.00
2024-04-25T22:00:22.137Z,100.00
2024-04-25T22:02:48.970Z,100.00
2024-04-25T22:05:16.157Z,100.00
2024-04-25T22:07:42.948Z,100.00
2024-04-25T22:10:10.124Z,100.00
2024-04-25T22:12:36.963Z,100.00
2024-04-25T22:15:05.058Z,100.00
2024-04-25T22:17:32.190Z,100.00
2024-04-25T22:19:59.554Z,100.00
2024-04-25T22:22:26.362Z,100.00
2024-04-25T22:24:53.664Z,100.00
2024-04-25T22:27:20.460Z,100.00
2024-04-25T22:29:47.996Z,100.00
2024-04-25T22:32:14.839Z,100.00
2024-04-25T22:34:42.027Z,100.00
2024-04-25T22:37:08.822Z,100.00
2024-04-25T22:39:35.975Z,100.00
2024-04-25T22:42:02.807Z,100.00
2024-04-25T22:44:30.413Z,100.00
2024-04-25T22:46:57.217Z,100.00
2024-04-25T22:49:24.524Z,100.00
2024-04-25T22:51:51.350Z,100.00
2024-04-25T22:54:18.543Z,100.00
2024-04-25T22:56:45.370Z,100.00
2024-04-25T22:59:12.566Z,100.00
2024-04-25T23:01:40.310Z,100.00
2024-04-25T23:04:07.621Z,100.00
2024-04-25T23:06:34.472Z,100.00
2024-04-25T23:09:01.779Z,100.00
2024-04-25T23:11:28.889Z,100.00
2024-04-25T23:13:56.121Z,100.00
2024-04-25T23:16:23.044Z,100.00
2024-04-25T23:18:50.409Z,100.00
2024-04-25T23:21:17.236Z,100.00
2024-04-25T23:23:44.388Z,100.00
2024-04-25T23:26:11.279Z,100.00
2024-04-25T23:28:38.528Z,100.00
2024-04-25T23:31:05.342Z,100.00
2024-04-25T23:33:32.715Z,100.00
2024-04-25T23:36:02.718Z,100.00
2024-04-25T23:38:29.786Z,100.00
2024-04-25T23:40:56.575Z,100.00
2024-04-25T23:43:23.833Z,100.00
2024-04-25T23:45:50.685Z,100.00
2024-04-25T23:48:17.921Z,100.00
2024-04-25T23:50:49.982Z,100.00
2024-04-25T23:53:18.107Z,100.00
2024-04-25T23:55:45.364Z,100.00
2024-04-25T23:58:13.192Z,100.00
